createdAt,value
2019-02-09T00:00:27.224Z,0.98
2019-02-09T00:02:53.794Z,0.89
2019-02-09T00:05:20.366Z,0.95
2019-02-09T00:07:46.935Z,0.86
2019-02-09T00:10:14.794Z,0.95
2019-02-09T00:12:41.386Z,0.94
2019-02-09T00:15:09.915Z,1.01
2019-02-09T00:17:36.490Z,1.06
2019-02-09T00:20:07.684Z,1.07
2019-02-09T00:22:34.308Z,1.15
2019-02-09T00:25:00.865Z,1.24
2019-02-09T00:27:27.693Z,1.14
2019-02-09T00:29:54.379Z,1.34
2019-02-09T00:32:21.011Z,1.30
2019-02-09T00:34:47.604Z,1.35
2019-02-09T00:37:14.233Z,1.15
2019-02-09T00:39:41.038Z,1.16
2019-02-09T00:42:07.609Z,1.14
2019-02-09T00:44:34.204Z,1.08
2019-02-09T00:47:00.843Z,1.00
2019-02-09T00:49:27.399Z,1.09
2019-02-09T00:51:53.947Z,1.08
2019-02-09T00:54:20.559Z,1.01
2019-02-09T00:56:47.138Z,1.02
2019-02-09T00:59:13.715Z,1.11
2019-02-09T01:01:40.452Z,1.01
2019-02-09T01:04:07.003Z,0.97
2019-02-09T01:06:33.583Z,0.87
2019-02-09T01:09:00.231Z,0.94
2019-02-09T01:11:26.922Z,1.08
2019-02-09T01:13:53.630Z,1.03
2019-02-09T01:16:20.226Z,0.97
2019-02-09T01:18:46.818Z,1.01
2019-02-09T01:21:13.545Z,1.02
2019-02-09T01:23:40.133Z,1.05
2019-02-09T01:27:03.341Z,1.09
2019-02-09T01:29:29.996Z,1.00
2019-02-09T01:31:56.569Z,1.09
2019-02-09T01:34:25.913Z,0.95
2019-02-09T01:36:52.546Z,0.65
2019-02-09T01:39:19.695Z,0.72
2019-02-09T01:41:46.503Z,0.83
2019-02-09T01:44:13.103Z,0.88
2019-02-09T01:46:39.663Z,0.76
2019-02-09T01:49:06.244Z,0.77
2019-02-09T01:51:32.889Z,0.89
2019-02-09T01:53:59.460Z,0.82
2019-02-09T01:56:26.088Z,0.84
2019-02-09T01:58:52.858Z,0.69
2019-02-09T02:01:19.493Z,0.68
2019-02-09T02:03:46.317Z,0.67
2019-02-09T02:06:12.955Z,0.73
2019-02-09T02:08:39.537Z,0.65
2019-02-09T02:11:06.197Z,0.64
2019-02-09T02:13:32.846Z,0.65
2019-02-09T02:15:59.440Z,0.64
2019-02-09T02:18:26.045Z,0.45
2019-02-09T02:20:52.676Z,0.59
2019-02-09T02:23:19.235Z,0.60
2019-02-09T02:25:46.073Z,0.50
2019-02-09T02:28:12.687Z,0.53
2019-02-09T02:30:39.299Z,0.43
2019-02-09T02:33:06.853Z,0.38
2019-02-09T02:35:34.393Z,0.36
2019-02-09T02:38:00.924Z,0.51
2019-02-09T02:40:27.641Z,0.51
2019-02-09T02:42:54.241Z,0.49
2019-02-09T02:45:23.373Z,0.55
2019-02-09T02:47:50.132Z,0.62
2019-02-09T02:50:20.278Z,0.52
2019-02-09T02:52:46.940Z,0.50
2019-02-09T02:55:17.628Z,0.54
2019-02-09T02:57:44.538Z,0.51
2019-02-09T03:00:16.419Z,0.68
2019-02-09T03:02:43.068Z,0.81
2019-02-09T03:05:14.014Z,0.68
2019-02-09T03:07:40.545Z,0.59
2019-02-09T03:10:09.667Z,0.55
2019-02-09T03:12:36.266Z,0.71
2019-02-09T03:15:08.604Z,0.71
2019-02-09T03:17:35.226Z,0.76
2019-02-09T03:20:05.291Z,0.81
2019-02-09T03:22:31.940Z,0.85
2019-02-09T03:24:58.537Z,0.78
2019-02-09T03:27:25.155Z,0.80
2019-02-09T03:29:51.770Z,0.72
2019-02-09T03:32:18.337Z,0.57
2019-02-09T03:34:44.992Z,0.63
2019-02-09T03:37:11.643Z,0.46
2019-02-09T03:39:38.308Z,0.56
2019-02-09T03:42:05.026Z,0.79
2019-02-09T03:44:32.824Z,0.53
2019-02-09T03:46:59.411Z,0.61
2019-02-09T03:49:26.025Z,0.81
2019-02-09T03:51:52.587Z,0.79
2019-02-09T03:54:19.202Z,0.83
2019-02-09T03:56:46.026Z,0.75
2019-02-09T03:59:12.674Z,0.76
2019-02-09T04:01:39.302Z,0.78
2019-02-09T04:04:06.023Z,0.91
2019-02-09T04:06:32.649Z,0.81
2019-02-09T04:09:00.812Z,0.88
2019-02-09T04:11:27.480Z,0.73
2019-02-09T04:13:54.094Z,0.79
2019-02-09T04:16:20.687Z,0.67
2019-02-09T04:18:47.286Z,0.90
2019-02-09T04:21:13.825Z,0.93
2019-02-09T04:23:40.494Z,0.84
2019-02-09T04:26:07.072Z,0.89
2019-02-09T04:28:33.719Z,1.00
2019-02-09T04:31:56.631Z,0.99
2019-02-09T04:34:23.237Z,1.10
2019-02-09T04:36:49.855Z,0.98
2019-02-09T04:39:16.465Z,0.91
2019-02-09T04:41:43.142Z,1.05
2019-02-09T04:44:09.693Z,1.15
2019-02-09T04:46:36.309Z,1.02
2019-02-09T04:49:02.885Z,1.05
2019-02-09T04:51:29.457Z,1.25
2019-02-09T04:53:56.106Z,1.19
2019-02-09T04:56:22.691Z,1.18
2019-02-09T04:58:49.257Z,1.16
2019-02-09T05:01:17.247Z,1.25
2019-02-09T05:03:43.856Z,1.04
2019-02-09T05:06:10.523Z,1.15
2019-02-09T05:08:37.175Z,1.05
2019-02-09T05:11:03.762Z,1.16
2019-02-09T05:13:30.322Z,1.05
2019-02-09T05:15:56.965Z,1.07
2019-02-09T05:18:23.551Z,1.20
2019-02-09T05:20:50.097Z,1.25
2019-02-09T05:23:16.703Z,1.24
2019-02-09T05:25:44.827Z,1.25
2019-02-09T05:28:11.513Z,1.23
2019-02-09T05:30:38.128Z,1.26
2019-02-09T05:33:04.668Z,1.12
2019-02-09T05:35:31.309Z,1.27
2019-02-09T05:37:57.888Z,1.36
2019-02-09T05:40:25.844Z,1.32
2019-02-09T05:42:52.471Z,1.38
2019-02-09T05:45:23.416Z,1.46
2019-02-09T05:47:50.031Z,1.57
2019-02-09T05:50:18.363Z,1.36
2019-02-09T05:52:45.619Z,1.32
2019-02-09T05:55:12.498Z,1.39
2019-02-09T05:57:39.054Z,1.41
2019-02-09T06:00:11.448Z,1.40
2019-02-09T06:02:38.155Z,1.35
2019-02-09T06:05:08.549Z,1.41
2019-02-09T06:07:35.179Z,1.48
2019-02-09T06:10:06.987Z,1.51
2019-02-09T06:12:33.631Z,1.53
2019-02-09T06:15:00.330Z,1.47
2019-02-09T06:17:28.104Z,1.45
2019-02-09T06:19:54.730Z,1.35
2019-02-09T06:22:21.364Z,1.46
2019-02-09T06:24:47.933Z,1.49
2019-02-09T06:27:14.565Z,1.49
2019-02-09T06:29:41.138Z,1.33
2019-02-09T06:32:07.743Z,1.41
2019-02-09T06:34:34.358Z,1.42
2019-02-09T06:37:01.304Z,1.45
2019-02-09T06:39:27.971Z,1.50
2019-02-09T06:41:54.541Z,1.64
2019-02-09T06:44:21.116Z,1.74
2019-02-09T06:46:47.725Z,1.72
2019-02-09T06:49:14.295Z,1.59
2019-02-09T06:51:40.823Z,1.68
2019-02-09T06:54:07.494Z,1.73
2019-02-09T06:56:35.254Z,1.84
2019-02-09T06:59:01.825Z,1.82
2019-02-09T07:01:28.456Z,1.86
2019-02-09T07:03:55.059Z,1.70
2019-02-09T07:06:21.633Z,1.90
2019-02-09T07:08:48.233Z,2.07
2019-02-09T07:11:14.851Z,2.12
2019-02-09T07:13:41.502Z,2.15
2019-02-09T07:16:08.090Z,2.17
2019-02-09T07:18:34.706Z,2.20
2019-02-09T07:21:01.267Z,2.42
2019-02-09T07:23:27.940Z,2.15
2019-02-09T07:25:54.532Z,2.26
2019-02-09T07:28:21.176Z,2.29
2019-02-09T07:30:47.726Z,2.29
2019-02-09T07:33:14.305Z,2.22
2019-02-09T07:35:40.919Z,2.46
2019-02-09T07:38:07.452Z,2.37
2019-02-09T07:40:35.032Z,2.33
2019-02-09T07:43:01.642Z,2.43
2019-02-09T07:45:30.784Z,2.29
2019-02-09T07:47:57.414Z,2.35
2019-02-09T07:50:26.258Z,2.30
2019-02-09T07:52:52.894Z,2.43
2019-02-09T07:55:19.747Z,2.50
2019-02-09T07:57:46.432Z,2.48
2019-02-09T08:00:17.522Z,2.43
2019-02-09T08:02:44.193Z,2.63
2019-02-09T08:05:12.066Z,2.44
2019-02-09T08:07:38.643Z,2.69
2019-02-09T08:11:08.841Z,2.58
2019-02-09T08:13:30.090Z,2.71
2019-02-09T08:15:56.792Z,2.67
2019-02-09T08:18:23.405Z,2.64
2019-02-09T08:20:49.978Z,2.55
2019-02-09T08:23:16.632Z,2.48
2019-02-09T08:25:43.236Z,2.55
2019-02-09T08:28:13.137Z,2.80
2019-02-09T08:30:44.554Z,2.89
2019-02-09T08:33:11.132Z,2.68
2019-02-09T08:35:37.689Z,2.91
2019-02-09T08:38:05.404Z,3.16
2019-02-09T08:40:33.030Z,3.26
2019-02-09T08:42:59.594Z,3.08
2019-02-09T08:45:26.241Z,3.09
2019-02-09T08:47:52.833Z,3.08
2019-02-09T09:09:44.932Z,3.47
2019-02-09T09:12:11.559Z,3.43
2019-02-09T09:14:38.220Z,3.41
2019-02-09T09:17:04.755Z,3.41
2019-02-09T09:19:31.231Z,3.56
2019-02-09T09:21:57.678Z,3.59
2019-02-09T09:24:24.173Z,3.58
2019-02-09T09:26:50.676Z,3.62
2019-02-09T09:29:17.383Z,3.61
2019-02-09T09:31:44.880Z,3.65
2019-02-09T09:34:11.427Z,3.64
2019-02-09T09:36:37.883Z,3.76
2019-02-09T09:39:07.282Z,3.74
2019-02-09T09:41:33.826Z,3.77
2019-02-09T09:44:00.385Z,3.63
2019-02-09T09:46:27.004Z,4.00
2019-02-09T09:48:53.934Z,4.09
2019-02-09T09:51:38.969Z,4.04
2019-02-09T09:54:05.576Z,4.01
2019-02-09T09:56:32.158Z,3.90
2019-02-09T09:58:58.715Z,4.01
2019-02-09T10:01:25.449Z,4.08
2019-02-09T10:03:53.580Z,3.94
2019-02-09T10:06:20.137Z,4.05
2019-02-09T10:08:46.682Z,4.09
2019-02-09T10:11:13.275Z,4.17
2019-02-09T10:13:39.833Z,4.19
2019-02-09T10:16:06.476Z,4.22
2019-02-09T10:18:33.010Z,4.05
2019-02-09T10:20:59.554Z,4.19
2019-02-09T10:23:26.447Z,4.09
2019-02-09T10:25:53.011Z,4.22
2019-02-09T10:28:19.657Z,4.28
2019-02-09T10:30:46.234Z,4.42
2019-02-09T10:33:12.828Z,4.38
2019-02-09T10:35:39.448Z,4.39
2019-02-09T10:38:06.213Z,4.59
2019-02-09T10:40:36.408Z,4.52
2019-02-09T10:43:06.473Z,4.60
2019-02-09T10:45:33.043Z,4.44
2019-02-09T10:48:01.224Z,4.47
2019-02-09T10:50:32.584Z,4.70
2019-02-09T10:52:59.345Z,4.78
2019-02-09T10:55:25.962Z,4.71
2019-02-09T10:57:52.674Z,4.76
2019-02-09T11:00:25.102Z,4.65
2019-02-09T11:02:52.321Z,4.80
2019-02-09T11:05:20.226Z,4.77
2019-02-09T11:07:46.845Z,4.87
2019-02-09T11:10:18.288Z,4.98
2019-02-09T11:12:45.246Z,5.10
2019-02-09T11:15:17.054Z,5.04
2019-02-09T11:17:43.610Z,5.13
2019-02-09T11:20:15.022Z,5.28
2019-02-09T11:22:41.631Z,5.22
2019-02-09T11:25:12.391Z,5.14
2019-02-09T11:27:39.678Z,4.96
2019-02-09T11:30:12.383Z,5.22
2019-02-09T11:32:39.330Z,5.32
2019-02-09T11:35:09.899Z,5.31
2019-02-09T11:37:36.696Z,5.45
2019-02-09T11:40:08.417Z,5.47
2019-02-09T11:42:35.026Z,5.59
2019-02-09T11:45:09.270Z,5.46
2019-02-09T11:47:35.879Z,5.54
2019-02-09T11:50:07.332Z,5.61
2019-02-09T11:52:34.748Z,5.75
2019-02-09T11:55:01.349Z,5.72
2019-02-09T11:57:27.926Z,5.82
2019-02-09T11:59:54.533Z,5.69
2019-02-09T12:02:21.110Z,5.76
2019-02-09T12:04:47.705Z,5.94
2019-02-09T12:07:14.305Z,5.97
2019-02-09T12:09:40.923Z,5.98
2019-02-09T12:12:09.434Z,6.07
2019-02-09T12:14:36.018Z,6.19
2019-02-09T12:17:02.798Z,6.28
2019-02-09T12:19:29.471Z,6.26
2019-02-09T12:21:56.058Z,6.26
2019-02-09T12:24:22.821Z,6.41
2019-02-09T12:26:49.387Z,6.62
2019-02-09T12:29:16.021Z,6.49
2019-02-09T12:31:42.636Z,6.65
2019-02-09T12:34:09.270Z,6.60
2019-02-09T12:36:36.099Z,6.58
2019-02-09T12:39:07.306Z,6.65
2019-02-09T12:41:33.902Z,6.55
2019-02-09T12:44:00.497Z,6.49
2019-02-09T12:46:27.060Z,6.55
2019-02-09T12:48:53.688Z,6.55
2019-02-09T12:51:20.405Z,6.47
2019-02-09T12:53:46.997Z,6.58
2019-02-09T12:56:13.550Z,6.59
2019-02-09T12:58:40.131Z,6.30
2019-02-09T13:01:06.907Z,6.41
2019-02-09T13:03:33.503Z,6.66
2019-02-09T13:06:00.116Z,6.58
2019-02-09T13:08:26.695Z,6.69
2019-02-09T13:10:53.264Z,6.74
2019-02-09T13:13:19.854Z,6.62
2019-02-09T13:15:46.432Z,6.65
2019-02-09T13:18:13.044Z,6.76
2019-02-09T13:20:39.664Z,6.85
2019-02-09T13:23:07.940Z,6.90
2019-02-09T13:25:34.551Z,6.80
2019-02-09T13:28:01.122Z,6.96
2019-02-09T13:30:31.978Z,6.88
2019-02-09T13:32:58.672Z,6.78
2019-02-09T13:35:25.355Z,6.84
2019-02-09T13:37:51.963Z,6.80
2019-02-09T13:40:22.246Z,6.83
2019-02-09T13:42:48.842Z,6.69
2019-02-09T13:45:20.942Z,6.74
2019-02-09T13:47:47.540Z,6.87
2019-02-09T13:50:20.794Z,6.87
2019-02-09T13:52:52.405Z,6.61
2019-02-09T13:55:21.098Z,6.58
2019-02-09T13:57:47.737Z,6.49
2019-02-09T14:00:18.820Z,6.31
2019-02-09T14:02:45.455Z,6.12
2019-02-09T14:05:13.553Z,6.27
2019-02-09T14:07:40.161Z,5.93
2019-02-09T14:10:12.086Z,5.99
2019-02-09T14:12:38.744Z,5.88
2019-02-09T14:15:11.255Z,5.79
2019-02-09T14:17:37.941Z,5.74
2019-02-09T14:20:09.022Z,5.76
2019-02-09T14:22:36.989Z,5.66
2019-02-09T14:25:06.882Z,5.77
2019-02-09T14:27:33.472Z,5.58
2019-02-09T14:30:00.066Z,5.62
2019-02-09T14:32:26.639Z,5.49
2019-02-09T14:34:53.366Z,5.58
2019-02-09T14:37:19.951Z,5.58
2019-02-09T14:39:46.593Z,5.56
2019-02-09T14:42:13.348Z,5.59
2019-02-09T14:44:40.033Z,5.40
2019-02-09T14:47:06.745Z,5.53
2019-02-09T14:49:33.391Z,5.51
2019-02-09T14:52:00.022Z,5.50
2019-02-09T14:54:26.594Z,5.45
2019-02-09T14:56:53.187Z,5.55
2019-02-09T14:59:19.789Z,5.61
2019-02-09T15:01:46.364Z,5.68
2019-02-09T15:04:12.988Z,5.81
2019-02-09T15:06:39.548Z,5.76
2019-02-09T15:09:06.994Z,5.78
2019-02-09T15:11:33.658Z,5.74
2019-02-09T15:14:00.307Z,5.85
2019-02-09T15:16:28.805Z,5.85
2019-02-09T15:18:55.390Z,5.80
2019-02-09T15:21:21.974Z,5.92
2019-02-09T15:23:48.591Z,5.92
2019-02-09T15:26:15.128Z,6.02
2019-02-09T15:28:42.926Z,6.01
2019-02-09T15:31:09.781Z,6.09
2019-02-09T15:33:36.562Z,6.05
2019-02-09T15:36:03.156Z,6.09
2019-02-09T15:38:29.756Z,6.11
2019-02-09T15:40:57.940Z,6.13
2019-02-09T15:43:24.511Z,6.09
2019-02-09T15:45:51.165Z,6.06
2019-02-09T15:48:17.825Z,6.07
2019-02-09T15:50:44.518Z,6.08
2019-02-09T15:53:11.115Z,6.08
2019-02-09T15:55:37.897Z,6.14
2019-02-09T15:58:04.491Z,6.16
2019-02-09T16:00:31.170Z,6.14
2019-02-09T16:02:59.612Z,6.18
2019-02-09T16:05:26.374Z,6.13
2019-02-09T16:07:53.316Z,6.24
2019-02-09T16:10:21.573Z,6.25
2019-02-09T16:12:48.387Z,6.19
2019-02-09T16:15:20.731Z,6.24
2019-02-09T16:17:47.304Z,6.02
2019-02-09T16:20:17.442Z,6.04
2019-02-09T16:22:44.113Z,5.98
2019-02-09T16:25:10.692Z,5.92
2019-02-09T16:27:37.316Z,6.06
2019-02-09T16:30:09.654Z,6.12
2019-02-09T16:32:36.230Z,6.16
2019-02-09T16:35:08.286Z,6.18
2019-02-09T16:37:34.878Z,6.20
2019-02-09T16:40:02.238Z,6.25
2019-02-09T16:42:29.606Z,6.17
2019-02-09T16:44:57.179Z,6.07
2019-02-09T16:47:23.733Z,5.96
2019-02-09T16:50:46.668Z,6.01
2019-02-09T16:53:13.340Z,6.04
2019-02-09T16:55:39.989Z,6.10
2019-02-09T16:58:06.682Z,6.06
2019-02-09T17:00:36.316Z,6.09
2019-02-09T17:03:05.262Z,5.96
2019-02-09T17:05:32.861Z,5.98
2019-02-09T17:07:59.488Z,6.00
2019-02-09T17:10:26.162Z,6.03
2019-02-09T17:12:52.703Z,6.07
2019-02-09T17:15:22.637Z,5.91
2019-02-09T17:17:49.342Z,5.78
2019-02-09T17:20:16.024Z,5.72
2019-02-09T17:22:42.887Z,5.78
2019-02-09T17:25:14.408Z,5.79
2019-02-09T17:27:41.023Z,5.81
2019-02-09T17:30:13.347Z,5.87
2019-02-09T17:32:39.968Z,5.84
2019-02-09T17:35:09.792Z,5.83
2019-02-09T17:37:36.411Z,5.85
2019-02-09T17:40:08.776Z,5.83
2019-02-09T17:42:35.362Z,5.81
2019-02-09T17:45:06.599Z,5.86
2019-02-09T17:47:33.136Z,5.81
2019-02-09T17:49:59.764Z,5.77
2019-02-09T17:52:26.496Z,5.81
2019-02-09T17:54:53.337Z,5.77
2019-02-09T17:57:20.034Z,5.68
2019-02-09T17:59:46.621Z,5.63
2019-02-09T18:02:13.246Z,5.70
2019-02-09T18:04:39.887Z,5.70
2019-02-09T18:07:06.568Z,5.74
2019-02-09T18:09:33.279Z,5.78
2019-02-09T18:11:59.960Z,5.77
2019-02-09T18:14:26.502Z,5.62
2019-02-09T18:16:53.124Z,5.64
2019-02-09T18:19:19.691Z,5.58
2019-02-09T18:21:46.297Z,5.57
2019-02-09T18:24:12.875Z,5.59
2019-02-09T18:26:39.667Z,5.61
2019-02-09T18:29:06.284Z,5.70
2019-02-09T18:31:34.112Z,5.65
2019-02-09T18:34:00.743Z,5.58
2019-02-09T18:36:27.407Z,5.63
2019-02-09T18:38:53.960Z,5.65
2019-02-09T18:41:20.532Z,5.68
2019-02-09T18:43:47.167Z,5.63
2019-02-09T18:46:13.750Z,5.54
2019-02-09T18:48:40.508Z,5.66
2019-02-09T18:51:07.164Z,5.69
2019-02-09T18:53:33.754Z,5.64
2019-02-09T18:56:00.490Z,5.63
2019-02-09T18:58:27.114Z,5.57
2019-02-09T19:00:53.798Z,5.64
2019-02-09T19:03:23.306Z,5.69
2019-02-09T19:05:49.892Z,5.79
2019-02-09T19:08:16.490Z,5.63
2019-02-09T19:10:43.091Z,5.67
2019-02-09T19:13:09.723Z,5.56
2019-02-09T19:15:36.579Z,5.44
2019-02-09T19:18:05.804Z,5.59
2019-02-09T19:20:36.201Z,5.54
2019-02-09T19:23:03.088Z,5.67
2019-02-09T19:25:29.660Z,5.63
2019-02-09T19:27:56.222Z,5.66
2019-02-09T19:30:25.490Z,5.82
2019-02-09T19:32:52.431Z,5.69
2019-02-09T19:35:19.053Z,5.66
2019-02-09T19:37:45.668Z,5.62
2019-02-09T19:40:17.316Z,5.58
2019-02-09T19:42:45.727Z,5.52
2019-02-09T19:45:18.046Z,5.41
2019-02-09T19:47:44.976Z,5.47
2019-02-09T19:50:14.189Z,5.38
2019-02-09T19:52:41.551Z,5.39
2019-02-09T19:55:13.884Z,5.52
2019-02-09T19:57:40.609Z,5.46
2019-02-09T20:00:13.028Z,5.26
2019-02-09T20:02:39.870Z,5.27
2019-02-09T20:05:07.702Z,5.30
2019-02-09T20:07:34.456Z,5.18
2019-02-09T20:10:01.058Z,5.29
2019-02-09T20:12:27.699Z,5.31
2019-02-09T20:14:55.364Z,5.39
2019-02-09T20:17:21.932Z,5.38
2019-02-09T20:19:48.566Z,5.35
2019-02-09T20:22:15.197Z,5.30
2019-02-09T20:24:41.794Z,5.44
2019-02-09T20:27:08.473Z,5.53
2019-02-09T20:29:35.041Z,5.59
2019-02-09T20:32:01.664Z,5.71
2019-02-09T20:34:30.201Z,5.76
2019-02-09T20:36:57.347Z,5.80
2019-02-09T20:39:24.026Z,5.79
2019-02-09T20:41:50.636Z,5.60
2019-02-09T20:44:18.982Z,5.59
2019-02-09T20:46:46.765Z,5.69
2019-02-09T20:49:13.357Z,5.66
2019-02-09T20:51:40.024Z,5.68
2019-02-09T20:54:06.691Z,5.72
2019-02-09T20:56:33.401Z,5.64
2019-02-09T20:59:00.055Z,5.75
2019-02-09T21:01:26.693Z,5.74
2019-02-09T21:03:53.301Z,5.74
2019-02-09T21:06:19.969Z,5.58
2019-02-09T21:08:47.185Z,5.58
2019-02-09T21:11:13.756Z,5.51
2019-02-09T21:13:40.314Z,5.53
2019-02-09T21:16:07.093Z,5.50
2019-02-09T21:18:33.757Z,5.59
2019-02-09T21:21:00.343Z,5.56
2019-02-09T21:23:27.007Z,5.59
2019-02-09T21:25:54.233Z,5.42
2019-02-09T21:28:20.952Z,5.21
2019-02-09T21:30:47.606Z,5.31
2019-02-09T21:33:14.315Z,5.28
2019-02-09T21:35:43.982Z,5.22
2019-02-09T21:38:09.423Z,5.16
2019-02-09T21:40:36.069Z,5.18
2019-02-09T21:43:02.659Z,5.01
2019-02-09T21:45:29.450Z,5.07
2019-02-09T21:47:56.158Z,5.15
2019-02-09T21:50:28.572Z,5.13
2019-02-09T21:52:55.248Z,5.00
2019-02-09T21:55:21.944Z,4.88
2019-02-09T21:57:48.635Z,4.62
2019-02-09T22:00:19.124Z,4.60
2019-02-09T22:02:45.770Z,4.68
2019-02-09T22:05:12.427Z,4.55
2019-02-09T22:07:39.316Z,4.56
2019-02-09T22:10:11.759Z,4.49
2019-02-09T22:12:39.058Z,4.41
2019-02-09T22:15:09.518Z,4.37
2019-02-09T22:17:36.784Z,4.32
2019-02-09T22:21:02.877Z,4.25
2019-02-09T22:23:29.638Z,4.27
2019-02-09T22:25:56.228Z,4.09
2019-02-09T22:28:22.955Z,4.14
2019-02-09T22:30:49.928Z,4.00
2019-02-09T22:33:24.251Z,3.87
2019-02-09T22:35:45.238Z,3.88
2019-02-09T22:38:12.327Z,3.82
2019-02-09T22:40:40.128Z,3.87
2019-02-09T22:43:06.944Z,3.72
2019-02-09T22:45:33.723Z,3.86
2019-02-09T22:48:00.519Z,3.95
2019-02-09T22:50:32.250Z,3.82
2019-02-09T22:52:59.369Z,3.86
2019-02-09T22:55:26.036Z,3.83
2019-02-09T22:57:52.714Z,3.69
2019-02-09T23:00:27.708Z,3.60
2019-02-09T23:02:54.639Z,3.54
2019-02-09T23:05:26.935Z,3.69
2019-02-09T23:07:53.785Z,3.55
2019-02-09T23:10:20.376Z,3.57
2019-02-09T23:12:48.701Z,3.64
2019-02-09T23:15:15.800Z,3.58
2019-02-09T23:17:42.525Z,3.63
2019-02-09T23:20:09.504Z,3.55
2019-02-09T23:22:36.281Z,3.52
2019-02-09T23:25:06.250Z,3.59
2019-02-09T23:27:33.307Z,3.43
2019-02-09T23:30:00.284Z,3.31
2019-02-09T23:32:29.791Z,3.40
2019-02-09T23:34:56.500Z,3.28
2019-02-09T23:37:23.252Z,3.32
2019-02-09T23:40:46.575Z,3.27
2019-02-09T23:43:13.293Z,3.20
2019-02-09T23:45:40.175Z,3.18
2019-02-09T23:48:06.835Z,3.14
2019-02-09T23:50:33.555Z,3.17
2019-02-09T23:53:00.097Z,3.20
2019-02-09T23:55:26.650Z,3.10
2019-02-09T23:57:53.239Z,2.87
